Flight Track Log - Related Links

Times and Time Zones

All times are in EDT time to prevent confusion due to time zone crossing. See the TAM3376 flight status page for this flight to view local times or setup timezone preferences in your user account.

Time Position Orientation Groundspeed Altitude Reporting Facility
EDT Latitude Longitude Course Direction KTS MPH feet Rate Location/Type
Sun 03:34:00 PM -21.5627 -42.7414 62° Northeast  Level Estimated
Sun 03:35:00 PM -21.5149 -42.6495 61° Northeast  Level Estimated
Sun 03:36:00 PM -21.4671 -42.5576 61° Northeast  Level Estimated
Sun 03:37:00 PM -21.4192 -42.4658 61° Northeast  Level Estimated
Sun 03:38:00 PM -21.3712 -42.3740 61° Northeast  Level Estimated
Sun 03:39:00 PM -21.3232 -42.2823 61° Northeast  Level Estimated
Sun 03:40:00 PM -21.2751 -42.1907 61° Northeast  Level Estimated
Sun 03:41:00 PM -21.2270 -42.0992 61° Northeast  Level Estimated
Sun 03:42:00 PM -21.1789 -42.0076 61° Northeast  Level Estimated
Sun 03:43:00 PM -21.1307 -41.9162 61° Northeast  Level Estimated
Sun 03:44:00 PM -21.0824 -41.8248 61° Northeast  Level Estimated
Sun 03:45:00 PM -21.0341 -41.7335 60° Northeast  Level Estimated
Sun 03:46:00 PM -20.9857 -41.6422 60° Northeast  Level Estimated
Sun 03:47:00 PM -20.9373 -41.5510 60° Northeast  Level Estimated
Sun 03:48:00 PM -20.8889 -41.4598 60° Northeast  Level Estimated
Sun 03:49:00 PM -20.8404 -41.3688 60° Northeast  Level Estimated
Sun 03:50:00 PM -20.7918 -41.2777 60° Northeast  Level Estimated
Sun 03:51:00 PM -20.7432 -41.1867 60° Northeast  Level Estimated
Sun 03:52:00 PM -20.6946 -41.0958 60° Northeast  Level Estimated
Sun 03:53:00 PM -20.6459 -41.0050 60° Northeast  Level Estimated
Sun 03:54:00 PM -20.5972 -40.9142 60° Northeast  Level Estimated
Sun 03:55:00 PM -20.5484 -40.8234 60° Northeast  Level Estimated
Sun 03:56:00 PM -20.4995 -40.7327 60° Northeast  Level Estimated
Sun 03:57:00 PM -20.4507 -40.6421 60° Northeast  Level Estimated
Sun 03:58:00 PM -20.4017 -40.5515 60° Northeast  Level Estimated
Sun 03:59:00 PM -20.3528 -40.4610 60° Northeast  Level Estimated
Sun 04:00:00 PM -20.3037 -40.3706 60° Northeast  Level Estimated
Sun 04:01:00 PM -20.2581 -40.2864 60° Northeast  Level Estimated
Sun 04:02:00 PM -20.2581 -40.2864 13° North  Level Estimated
Sun 04:03:00 PM -20.2581 -40.2864 13° North  Level Estimated
Sun 04:04:00 PM -20.2581 -40.2864 13° North  Level Estimated
Sun 04:05:00 PM -20.2581 -40.2864 13° North  Level Estimated
Sun 04:06:00 PM -20.2581 -40.2864 13° North  Level Estimated
Sun 04:07:00 PM -20.2581 -40.2864 13° North  Level Estimated
Sun 04:08:00 PM -20.2581 -40.2864 13° North  Level Estimated
Sun 04:09:00 PM -20.2581 -40.2864 13° North  Level Estimated
Sun 04:10:00 PM -20.2581 -40.2864 13° North  Level Estimated
Sun 04:11:00 PM -20.2581 -40.2864 13° North  Level Estimated
Sun 04:12:00 PM -20.2581 -40.2864 13° North  Level Estimated
Sun 04:13:00 PM -20.2581 -40.2864 13° North  Level Estimated
Sun 04:14:00 PM -20.2581 -40.2864 13° North  Level Estimated
Sun 04:15:00 PM -20.2581 -40.2864 13° North  Level Estimated
Sun 04:16:00 PM -20.2581 -40.2864 13° North  Level Estimated

Login

Don't have an account? Register now (free) for customized features, flight alerts, and more!